Hauptseite
METAR-TAF:

METAR-TAF

Flughäfen :

Plzeň, Tschechien

Breite: 49-40-31N, Länge: 13-16-29E, Höhe: 362 m

Beobachtung

Neuester Wetterbericht von vor 22 Minuten, um 00:00 UTC
Wind 4 kt aus West/Nordwest, variierte zwischen West und Nord/Nordwest
Temperatur -2°C
Luftfeuchtigkeit 80%
Luftdruck 1037 hPa
Sichtweite 10 km oder mehr
Leicht bewölkt in der Höhe von 3200 ft
Aufgelockert bewölkt in der Höhe von 4500 ft

METAR: LKLN 050000Z AUTO 29004KT 260V330 9999 FEW032 SCT045 M02/M05 Q1037

Zeit: 01:22 (00:22 UTC)


TAF: fehlend

Wetterbeobachtungen und Prognosen von mehr als 4000 Flughäfen (METAR und TAF Bericht).

Die verfügbaren Stationen werden durch gelbe und rote Markierungen auf der Karte dargestellt.

Führen Sie die Maus auf sie, um den Namen der Station zu sehen.

Darauf klicken, um die Beobachtung von Wetterbeobachtungen und Prognosen zu sehen.

Um die Karte zu ändern : klicken Sie auf den grünen Tasten mit einem schwarzen Kreuz Zum Vergrößern, auf den grünen Button mit einem Gedankenstrich zu verkleinern, oder auf die grünen Pfeile für benachbarte Karten.


METAR-TAF: